Time;durP1;ratioP1;P1;durP2;ratioP2;P2;SDS_P1;SDS_P2;PMS_P1;PMS_P2;Temp;Humidity;BMP_temperature;BMP_pressure;BME280_temperature;BME280_humidity;BME280_pressure;Samples;Min_cycle;Max_cycle;Signal;HPM_P1;HPM_P2
2022/08/01 00:01:57;;;;;;;0.00;0.00;;;23.80;79.80;;;;;;4191875;28;20048;-65
2022/08/01 00:04:19;;;;;;;0.00;0.00;;;23.80;79.10;;;;;;4191503;28;20040;-64
2022/08/01 00:06:41;;;;;;;0.00;0.00;;;23.80;79.20;;;;;;4193582;28;20094;-65
2022/08/01 00:09:03;;;;;;;0.00;0.00;;;23.80;79.10;;;;;;4177497;28;20146;-64
2022/08/01 00:11:26;;;;;;;0.00;0.00;;;23.80;80.00;;;;;;4193522;28;20040;-65
2022/08/01 00:13:47;;;;;;;0.00;0.00;;;23.80;79.10;;;;;;4177740;28;20060;-65
2022/08/01 00:16:11;;;;;;;4.10;1.30;;;23.80;79.10;;;;;;4177052;28;20060;-65
2022/08/01 00:18:34;;;;;;;0.25;0.25;;;23.80;79.10;;;;;;4192010;28;20059;-65
2022/08/01 00:20:56;;;;;;;0.20;0.20;;;23.80;79.10;;;;;;4193036;28;20062;-65
2022/08/01 00:23:18;;;;;;;0.00;0.00;;;23.80;79.10;;;;;;4193851;28;20105;-65
2022/08/01 00:25:40;;;;;;;4.68;1.00;;;23.80;79.30;;;;;;4193165;28;20044;-66
2022/08/01 00:28:03;;;;;;;0.63;0.63;;;23.80;79.10;;;;;;4193204;28;20060;-65
2022/08/01 00:30:25;;;;;;;0.10;0.10;;;23.80;79.10;;;;;;4191991;28;20058;-65
2022/08/01 00:32:48;;;;;;;2.70;1.95;;;23.80;79.10;;;;;;4193754;28;20117;-65
2022/08/01 00:35:10;;;;;;;0.00;0.00;;;23.70;79.20;;;;;;4193469;28;20048;-65
2022/08/01 00:37:32;;;;;;;0.00;0.00;;;23.80;79.10;;;;;;4193651;28;20044;-65
2022/08/01 00:39:55;;;;;;;0.00;0.00;;;23.70;79.00;;;;;;4193106;28;20047;-65
2022/08/01 00:42:17;;;;;;;0.00;0.00;;;23.70;79.10;;;;;;4191205;28;20070;-65
2022/08/01 00:44:39;;;;;;;0.32;0.32;;;23.70;79.10;;;;;;4191310;28;20533;-65
2022/08/01 00:47:02;;;;;;;0.00;0.00;;;23.70;79.20;;;;;;4176429;28;20400;-65
2022/08/01 00:49:25;;;;;;;0.10;0.10;;;23.70;79.20;;;;;;4176530;28;20459;-65
2022/08/01 00:51:48;;;;;;;0.10;0.10;;;23.70;79.20;;;;;;4176575;28;20056;-65
2022/08/01 00:54:10;;;;;;;0.00;0.00;;;23.70;79.20;;;;;;4193078;28;20068;-65
2022/08/01 00:56:32;;;;;;;0.00;0.00;;;23.70;79.20;;;;;;4191443;28;20110;-65
2022/08/01 00:58:55;;;;;;;0.13;0.13;;;23.70;79.30;;;;;;4190467;28;20131;-65
2022/08/01 01:01:20;;;;;;;0.00;0.00;;;23.70;79.30;;;;;;4178063;28;20099;-65
2022/08/01 01:03:43;;;;;;;0.00;0.00;;;23.70;79.40;;;;;;4192942;28;20055;-65
2022/08/01 01:06:28;;;;;;;0.00;0.00;;;23.70;79.40;;;;;;4192701;28;20041;-65
2022/08/01 01:09:00;;;;;;;0.00;0.00;;;23.70;79.50;;;;;;4192793;28;20467;-65
2022/08/01 01:11:29;;;;;;;0.00;0.00;;;23.60;79.30;;;;;;4191283;28;20059;-65
2022/08/01 01:13:58;;;;;;;1.45;0.75;;;23.60;79.40;;;;;;4192579;28;20450;-65
2022/08/01 01:16:22;;;;;;;0.00;0.00;;;23.60;79.50;;;;;;4191922;28;20063;-65
2022/08/01 01:18:48;;;;;;;0.10;0.10;;;23.60;79.40;;;;;;4192231;28;20110;-65
2022/08/01 01:21:25;;;;;;;0.00;0.00;;;23.60;79.50;;;;;;4190988;28;20048;-65
2022/08/01 01:23:56;;;;;;;0.00;0.00;;;23.60;79.60;;;;;;4191554;28;20071;-65
2022/08/01 01:26:32;;;;;;;0.00;0.00;;;23.60;79.60;;;;;;4190983;28;20486;-65
2022/08/01 01:29:08;;;;;;;0.00;0.00;;;23.60;79.50;;;;;;4192400;28;20494;-65
2022/08/01 01:31:33;;;;;;;0.00;0.00;;;23.60;79.40;;;;;;4192014;28;20514;-65
2022/08/01 01:33:57;;;;;;;0.03;0.03;;;23.60;79.30;;;;;;4191698;28;20040;-65
2022/08/01 01:36:21;;;;;;;0.00;0.00;;;23.60;80.30;;;;;;4192509;28;20557;-65
2022/08/01 01:38:47;;;;;;;0.00;0.00;;;23.60;79.50;;;;;;4191717;28;20048;-66
2022/08/01 01:41:12;;;;;;;0.00;0.00;;;23.60;79.60;;;;;;4191226;28;20033;-65
2022/08/01 01:43:35;;;;;;;0.00;0.00;;;23.60;79.50;;;;;;4192063;28;20481;-65
2022/08/01 01:46:00;;;;;;;0.00;0.00;;;23.60;79.30;;;;;;4192356;28;20559;-65
2022/08/01 01:48:24;;;;;;;0.00;0.00;;;23.60;79.40;;;;;;4167053;28;20069;-65
2022/08/01 01:50:48;;;;;;;0.00;0.00;;;23.60;79.40;;;;;;4174571;28;20067;-64
2022/08/01 01:53:13;;;;;;;0.00;0.00;;;23.60;79.50;;;;;;4175346;28;20106;-65
2022/08/01 01:55:38;;;;;;;0.00;0.00;;;23.50;79.50;;;;;;4174516;28;20053;-65
2022/08/01 01:58:14;;;;;;;0.00;0.00;;;23.50;79.50;;;;;;4174674;28;20455;-65
2022/08/01 02:00:38;;;;;;;0.00;0.00;;;23.50;79.30;;;;;;4175308;28;20051;-65
2022/08/01 02:03:03;;;;;;;0.00;0.00;;;23.50;79.30;;;;;;4172959;28;20049;-64
2022/08/01 02:05:26;;;;;;;0.00;0.00;;;23.50;79.40;;;;;;4175374;28;20063;-64
2022/08/01 02:07:49;;;;;;;0.00;0.00;;;23.50;79.30;;;;;;4174253;28;20099;-64
2022/08/01 02:10:12;;;;;;;0.00;0.00;;;23.50;79.20;;;;;;4175489;28;20044;-64
2022/08/01 02:12:37;;;;;;;0.00;0.00;;;23.50;79.20;;;;;;4174159;28;20140;-64
2022/08/01 02:15:01;;;;;;;0.00;0.00;;;23.50;79.10;;;;;;4175449;28;20135;-64
2022/08/01 02:17:24;;;;;;;0.00;0.00;;;23.50;79.20;;;;;;4188195;28;20070;-64
2022/08/01 02:19:48;;;;;;;0.00;0.00;;;23.50;79.20;;;;;;4191922;28;20139;-64
2022/08/01 02:22:14;;;;;;;0.00;0.00;;;23.40;79.20;;;;;;4190634;28;20133;-64
2022/08/01 02:24:41;;;;;;;0.00;0.00;;;23.40;79.20;;;;;;4189876;28;20078;-63
2022/08/01 02:27:08;;;;;;;0.00;0.00;;;23.40;79.20;;;;;;4191316;28;20052;-64
2022/08/01 02:29:44;;;;;;;0.20;0.20;;;23.40;78.90;;;;;;4190548;28;20430;-63
2022/08/01 02:32:09;;;;;;;0.00;0.00;;;23.40;79.00;;;;;;4191500;28;20052;-63
2022/08/01 02:34:34;;;;;;;0.00;0.00;;;23.40;79.20;;;;;;4191688;28;20048;-64
2022/08/01 02:36:58;;;;;;;0.28;0.28;;;23.30;79.10;;;;;;4191203;28;20056;-64
2022/08/01 02:39:22;;;;;;;0.00;0.00;;;23.30;79.00;;;;;;4175051;28;20595;-64
2022/08/01 02:41:48;;;;;;;0.00;0.00;;;23.30;78.90;;;;;;4192054;28;20072;-64
2022/08/01 02:44:19;;;;;;;0.00;0.00;;;23.30;79.90;;;;;;4190316;28;20068;-64
2022/08/01 02:46:53;;;;;;;0.00;0.00;;;23.30;78.90;;;;;;4189915;28;20049;-64
2022/08/01 02:49:19;;;;;;;0.00;0.00;;;23.20;79.30;;;;;;4191413;28;20075;-64
2022/08/01 02:51:43;;;;;;;0.00;0.00;;;23.20;79.30;;;;;;4177250;28;20064;-64
2022/08/01 02:54:08;;;;;;;0.00;0.00;;;23.20;79.40;;;;;;4173890;28;20218;-64
2022/08/01 02:56:35;;;;;;;0.00;0.00;;;23.30;79.60;;;;;;4174676;28;20103;-64
2022/08/01 02:58:57;;;;;;;0.00;0.00;;;23.20;79.40;;;;;;4174956;28;20051;-64
2022/08/01 03:01:21;;;;;;;0.00;0.00;;;23.20;79.50;;;;;;4175876;28;20045;-64
2022/08/01 03:03:43;;;;;;;0.00;0.00;;;23.20;79.50;;;;;;4175273;28;20167;-64
2022/08/01 03:06:06;;;;;;;0.00;0.00;;;23.30;79.40;;;;;;4190822;28;20048;-64
2022/08/01 03:08:31;;;;;;;0.00;0.00;;;23.30;79.40;;;;;;4189867;28;20067;-64
2022/08/01 03:10:56;;;;;;;0.00;0.00;;;23.20;79.30;;;;;;4189821;28;20131;-64
2022/08/01 03:13:18;;;;;;;0.00;0.00;;;23.20;79.30;;;;;;4191710;28;20059;-64
2022/08/01 03:15:43;;;;;;;0.00;0.00;;;23.20;79.40;;;;;;4191297;28;20136;-64
2022/08/01 03:18:09;;;;;;;0.00;0.00;;;23.20;80.20;;;;;;4191604;28;20052;-64
2022/08/01 03:20:33;;;;;;;0.00;0.00;;;23.20;79.40;;;;;;4191100;28;20052;-64
2022/08/01 03:22:58;;;;;;;0.00;0.00;;;23.20;79.20;;;;;;4191403;28;20494;-63
2022/08/01 03:25:22;;;;;;;0.00;0.00;;;23.20;79.30;;;;;;4191096;28;20110;-64
2022/08/01 03:27:48;;;;;;;0.00;0.00;;;23.20;79.20;;;;;;4191345;28;20113;-63
2022/08/01 03:30:12;;;;;;;8.20;0.73;;;23.20;79.00;;;;;;4190771;28;20055;-63
2022/08/01 03:32:35;;;;;;;0.00;0.00;;;23.20;79.20;;;;;;4191237;28;20036;-63
2022/08/01 03:34:57;;;;;;;0.00;0.00;;;23.20;79.10;;;;;;4191100;28;20131;-64
2022/08/01 03:37:25;;;;;;;0.28;0.28;;;23.20;79.10;;;;;;4189240;28;20056;-63
2022/08/01 03:39:51;;;;;;;0.00;0.00;;;23.10;79.30;;;;;;4193052;28;20098;-63
2022/08/01 03:42:16;;;;;;;0.00;0.00;;;23.20;79.40;;;;;;4176362;28;20921;-63
2022/08/01 03:44:41;;;;;;;1.27;1.20;;;23.10;79.40;;;;;;4177941;28;20051;-63
2022/08/01 03:47:08;;;;;;;0.00;0.00;;;23.10;79.30;;;;;;4177461;28;21728;-63
2022/08/01 03:49:33;;;;;;;0.00;0.00;;;23.10;79.40;;;;;;4177773;28;20053;-63
2022/08/01 03:51:57;;;;;;;0.00;0.00;;;23.10;79.40;;;;;;4177319;28;20395;-63
2022/08/01 03:54:24;;;;;;;1.27;1.00;;;23.10;79.30;;;;;;4194007;28;20056;-63
2022/08/01 03:56:48;;;;;;;0.60;0.45;;;23.10;79.30;;;;;;4193709;28;20049;-63
2022/08/01 03:59:11;;;;;;;0.00;0.00;;;23.10;79.20;;;;;;4192712;28;20043;-63
2022/08/01 04:01:35;;;;;;;0.00;0.00;;;23.10;78.90;;;;;;4193872;28;20076;-63
2022/08/01 04:03:59;;;;;;;0.00;0.00;;;23.10;79.20;;;;;;4193693;28;20501;-64
2022/08/01 04:06:21;;;;;;;0.00;0.00;;;23.20;79.20;;;;;;4177105;28;20465;-63
2022/08/01 04:08:42;;;;;;;0.00;0.00;;;23.10;79.10;;;;;;4177038;28;20063;-63
2022/08/01 04:11:05;;;;;;;0.00;0.00;;;23.10;78.90;;;;;;4192453;28;20052;-63
2022/08/01 04:13:27;;;;;;;0.00;0.00;;;23.10;79.00;;;;;;4193465;28;20075;-63
2022/08/01 04:15:49;;;;;;;0.00;0.00;;;23.10;79.00;;;;;;4193928;28;20113;-63
2022/08/01 04:18:13;;;;;;;0.10;0.10;;;23.10;78.70;;;;;;4193656;28;20041;-63
2022/08/01 04:20:35;;;;;;;0.00;0.00;;;23.10;78.70;;;;;;4176866;28;20045;-63
2022/08/01 04:22:57;;;;;;;0.00;0.00;;;23.10;78.80;;;;;;4193486;28;20055;-64
2022/08/01 04:25:27;;;;;;;0.00;0.00;;;23.10;78.40;;;;;;4193643;28;20102;-63
2022/08/01 04:27:52;;;;;;;0.15;0.15;;;23.10;78.70;;;;;;4192951;28;20125;-63
2022/08/01 04:30:15;;;;;;;0.00;0.00;;;23.10;78.80;;;;;;4192990;28;20122;-63
2022/08/01 04:32:43;;;;;;;0.10;0.10;;;23.10;78.60;;;;;;4177051;28;20121;-63
2022/08/01 04:35:12;;;;;;;0.00;0.00;;;23.10;78.60;;;;;;4177089;28;20681;-63
2022/08/01 04:37:45;;;;;;;0.00;0.00;;;23.20;78.50;;;;;;4168498;28;20473;-63
2022/08/01 04:40:09;;;;;;;0.00;0.00;;;23.10;78.50;;;;;;4160219;28;20099;-64
2022/08/01 04:42:32;;;;;;;0.00;0.00;;;23.10;78.40;;;;;;4164101;28;20148;-63
2022/08/01 04:44:54;;;;;;;0.00;0.00;;;23.10;78.30;;;;;;4176648;28;20385;-63
2022/08/01 04:47:16;;;;;;;3.63;1.85;;;23.10;78.10;;;;;;4188054;28;20131;-63
2022/08/01 04:49:39;;;;;;;0.00;0.00;;;23.10;78.30;;;;;;4176403;28;20107;-64
2022/08/01 04:52:09;;;;;;;0.00;0.00;;;23.10;77.90;;;;;;4175982;28;20055;-63
2022/08/01 04:54:37;;;;;;;0.00;0.00;;;23.10;78.00;;;;;;4176543;28;20071;-63
2022/08/01 04:57:01;;;;;;;1.75;1.02;;;23.10;78.00;;;;;;4175874;28;20045;-63
2022/08/01 04:59:41;;;;;;;0.03;0.03;;;23.10;77.60;;;;;;4192563;28;20178;-64
2022/08/01 05:02:03;;;;;;;0.00;0.00;;;23.10;77.50;;;;;;4192779;28;20076;-64
2022/08/01 05:04:25;;;;;;;0.00;0.00;;;23.10;77.40;;;;;;4192996;28;20096;-63
2022/08/01 05:06:47;;;;;;;1.25;1.15;;;23.10;77.60;;;;;;4192814;28;20095;-64
2022/08/01 05:09:10;;;;;;;1.70;1.60;;;23.10;77.50;;;;;;4193019;28;20037;-64
2022/08/01 05:11:32;;;;;;;0.00;0.00;;;23.10;77.80;;;;;;4191424;28;20506;-63
2022/08/01 05:13:54;;;;;;;0.08;0.08;;;23.10;77.40;;;;;;4176688;28;20051;-63
2022/08/01 05:16:16;;;;;;;0.30;0.30;;;23.10;77.40;;;;;;4175309;28;20122;-63
2022/08/01 05:18:39;;;;;;;0.00;0.00;;;23.00;77.20;;;;;;4176191;28;20127;-63
2022/08/01 05:21:02;;;;;;;0.00;0.00;;;23.00;77.50;;;;;;4184410;28;20044;-64
2022/08/01 05:23:23;;;;;;;0.00;0.00;;;23.00;77.40;;;;;;4191463;28;20455;-63
2022/08/01 05:26:01;;;;;;;0.00;0.00;;;23.00;77.00;;;;;;4192474;28;20098;-63
2022/08/01 05:28:23;;;;;;;0.00;0.00;;;23.00;76.80;;;;;;4191452;28;20399;-63
2022/08/01 05:30:46;;;;;;;0.25;0.25;;;23.00;76.80;;;;;;4190542;28;20438;-63
2022/08/01 05:33:08;;;;;;;0.00;0.00;;;23.00;77.30;;;;;;4191790;28;20106;-63
2022/08/01 05:35:31;;;;;;;3.60;1.65;;;23.00;77.30;;;;;;4192211;28;20062;-63
2022/08/01 05:38:09;;;;;;;0.00;0.00;;;23.00;78.40;;;;;;4192650;28;20044;-63
2022/08/01 05:40:32;;;;;;;0.10;0.10;;;23.00;77.40;;;;;;4192002;28;20182;-63
2022/08/01 05:42:55;;;;;;;0.00;0.00;;;23.00;78.10;;;;;;4192477;28;20048;-62
2022/08/01 05:45:17;;;;;;;0.70;0.70;;;23.00;77.40;;;;;;4175692;28;20060;-63
2022/08/01 05:47:39;;;;;;;0.00;0.00;;;23.00;77.60;;;;;;4179160;28;20048;-62
2022/08/01 05:50:04;;;;;;;0.00;0.00;;;23.00;77.40;;;;;;4181317;28;20056;-62
2022/08/01 05:52:26;;;;;;;0.00;0.00;;;23.00;76.90;;;;;;4174101;28;20134;-62
2022/08/01 05:54:48;;;;;;;0.00;0.00;;;23.00;77.20;;;;;;4159862;28;20064;-62
2022/08/01 05:57:10;;;;;;;0.00;0.00;;;23.00;77.10;;;;;;4189061;28;20051;-64
2022/08/01 05:59:34;;;;;;;0.08;0.08;;;23.00;77.10;;;;;;4186123;28;20154;-64
2022/08/01 06:01:56;;;;;;;0.22;0.22;;;23.00;77.00;;;;;;4176723;28;20059;-64
2022/08/01 06:04:18;;;;;;;0.00;0.00;;;23.00;76.80;;;;;;4175571;28;20495;-63
2022/08/01 06:06:41;;;;;;;0.22;0.22;;;23.00;76.80;;;;;;4175437;28;20045;-64
2022/08/01 06:09:03;;;;;;;0.00;0.00;;;23.00;76.60;;;;;;4190748;28;20044;-64
2022/08/01 06:11:25;;;;;;;0.00;0.00;;;23.00;76.50;;;;;;4191898;28;20051;-64
2022/08/01 06:13:47;;;;;;;0.00;0.00;;;23.00;76.30;;;;;;4190348;28;20141;-64
2022/08/01 06:16:11;;;;;;;0.00;0.00;;;23.00;76.90;;;;;;4190772;28;20045;-64
2022/08/01 06:18:33;;;;;;;0.00;0.00;;;23.00;76.10;;;;;;4190575;28;20135;-63
2022/08/01 06:20:55;;;;;;;0.95;0.90;;;23.00;76.00;;;;;;4191672;28;20493;-64
2022/08/01 06:23:17;;;;;;;0.00;0.00;;;23.00;76.10;;;;;;4191589;28;20053;-64
2022/08/01 06:25:54;;;;;;;1.08;1.02;;;23.00;75.80;;;;;;4190522;28;20135;-63
2022/08/01 06:28:15;;;;;;;0.00;0.00;;;23.00;75.90;;;;;;4191454;28;20526;-64
2022/08/01 06:30:37;;;;;;;0.00;0.00;;;22.90;75.90;;;;;;4192389;28;20158;-64
2022/08/01 06:33:01;;;;;;;0.00;0.00;;;23.00;75.90;;;;;;4189909;28;20488;-64
2022/08/01 06:35:23;;;;;;;0.25;0.25;;;22.90;75.90;;;;;;4191725;28;20043;-64
2022/08/01 06:37:46;;;;;;;0.00;0.00;;;22.90;75.80;;;;;;4188768;28;20055;-64
2022/08/01 06:40:10;;;;;;;0.00;0.00;;;22.90;75.90;;;;;;4186748;28;20070;-64
2022/08/01 06:42:38;;;;;;;0.00;0.00;;;22.90;75.80;;;;;;4188204;28;20044;-64
2022/08/01 06:45:00;;;;;;;1.00;0.70;;;22.90;74.90;;;;;;4188444;28;20044;-64
2022/08/01 06:47:22;;;;;;;0.00;0.00;;;22.90;75.10;;;;;;4189310;28;20075;-64
2022/08/01 06:49:46;;;;;;;0.00;0.00;;;22.90;74.40;;;;;;4186502;28;20140;-63
2022/08/01 06:52:08;;;;;;;0.03;0.03;;;22.90;74.30;;;;;;4188839;28;20063;-63
2022/08/01 06:54:30;;;;;;;0.52;0.52;;;22.90;74.50;;;;;;4188064;28;20064;-63
2022/08/01 06:56:52;;;;;;;0.10;0.10;;;22.90;74.80;;;;;;4188905;28;20499;-64
2022/08/01 06:59:14;;;;;;;0.00;0.00;;;22.90;75.30;;;;;;4186629;28;20411;-63
2022/08/01 07:01:36;;;;;;;0.00;0.00;;;22.90;73.90;;;;;;4188408;28;20837;-63
2022/08/01 07:03:58;;;;;;;0.00;0.00;;;22.90;74.20;;;;;;4186792;28;20139;-65
2022/08/01 07:06:23;;;;;;;0.00;0.00;;;22.90;73.90;;;;;;4188175;28;20048;-64
2022/08/01 07:08:45;;;;;;;0.00;0.00;;;22.80;74.40;;;;;;4187523;28;20052;-63
2022/08/01 07:11:07;;;;;;;0.13;0.13;;;22.80;74.30;;;;;;4180241;28;20211;-64
2022/08/01 07:13:30;;;;;;;0.00;0.00;;;22.80;74.50;;;;;;4188623;28;20052;-63
2022/08/01 07:15:58;;;;;;;0.00;0.00;;;22.80;74.30;;;;;;4191238;28;20040;-64
2022/08/01 07:18:20;;;;;;;0.00;0.00;;;22.80;74.60;;;;;;4191445;28;20054;-64
2022/08/01 07:20:43;;;;;;;0.00;0.00;;;22.90;74.70;;;;;;4191638;28;20053;-64
2022/08/01 07:23:13;;;;;;;0.00;0.00;;;22.80;74.90;;;;;;4189751;28;20059;-63
2022/08/01 07:25:34;;;;;;;0.00;0.00;;;22.80;73.70;;;;;;4191337;28;20564;-64
2022/08/01 07:27:57;;;;;;;0.28;0.28;;;22.90;73.80;;;;;;4191572;28;20434;-64
2022/08/01 07:30:19;;;;;;;0.03;0.03;;;22.80;73.30;;;;;;4191348;28;20044;-63
2022/08/01 07:32:41;;;;;;;0.00;0.00;;;22.80;74.00;;;;;;4190338;28;20086;-64
2022/08/01 07:35:04;;;;;;;0.22;0.22;;;22.90;74.00;;;;;;4191543;28;20071;-64
2022/08/01 07:37:26;;;;;;;0.00;0.00;;;22.90;73.60;;;;;;4192066;28;20053;-64
2022/08/01 07:40:05;;;;;;;0.00;0.00;;;22.90;73.20;;;;;;4166481;28;20178;-64
2022/08/01 07:42:27;;;;;;;0.05;0.05;;;22.90;73.60;;;;;;4174698;28;20060;-64
2022/08/01 07:44:49;;;;;;;0.00;0.00;;;22.90;74.00;;;;;;4174777;28;20132;-64
2022/08/01 07:47:12;;;;;;;1.08;1.08;;;22.90;74.10;;;;;;4172574;28;20064;-63
2022/08/01 07:49:34;;;;;;;0.00;0.00;;;22.90;73.80;;;;;;4191119;28;20502;-65
2022/08/01 07:52:01;;;;;;;0.15;0.15;;;22.90;73.60;;;;;;4190884;28;20525;-64
2022/08/01 07:54:27;;;;;;;0.10;0.10;;;22.90;73.30;;;;;;4190766;28;20098;-65
2022/08/01 07:56:56;;;;;;;3.42;1.55;;;23.00;72.90;;;;;;4189995;28;20143;-64
2022/08/01 07:59:22;;;;;;;0.00;0.00;;;23.00;72.40;;;;;;4190351;28;20123;-64
2022/08/01 08:01:44;;;;;;;0.00;0.00;;;23.00;71.40;;;;;;4191157;28;20404;-64
2022/08/01 08:04:06;;;;;;;0.00;0.00;;;23.10;71.60;;;;;;4190235;28;20052;-63
2022/08/01 08:06:28;;;;;;;0.95;0.95;;;23.10;71.70;;;;;;4191042;28;20048;-64
2022/08/01 08:08:53;;;;;;;0.00;0.00;;;23.20;71.50;;;;;;4191051;28;20152;-64
2022/08/01 08:11:15;;;;;;;0.00;0.00;;;23.20;70.10;;;;;;4190342;28;20411;-65
2022/08/01 08:13:38;;;;;;;0.00;0.00;;;23.20;70.30;;;;;;4190914;28;20044;-65
2022/08/01 08:16:00;;;;;;;0.00;0.00;;;23.30;70.30;;;;;;4190601;28;20055;-64
2022/08/01 08:18:23;;;;;;;0.00;0.00;;;23.30;70.80;;;;;;4189344;28;20052;-64
2022/08/01 08:20:45;;;;;;;0.17;0.17;;;23.30;70.50;;;;;;4191999;28;20480;-64
2022/08/01 08:24:19;;;;;;;0.08;0.08;;;23.40;70.90;;;;;;4191153;28;20871;-65
2022/08/01 08:26:03;;;;;;;0.00;0.00;;;23.40;69.60;;;;;;4189223;28;20059;-65
2022/08/01 08:28:25;;;;;;;0.00;0.00;;;23.40;68.40;;;;;;4190703;28;20048;-64
2022/08/01 08:30:50;;;;;;;0.20;0.20;;;23.40;68.00;;;;;;4181246;28;20127;-64
2022/08/01 08:33:13;;;;;;;0.00;0.00;;;23.40;68.50;;;;;;4190876;28;20463;-65
2022/08/01 08:35:35;;;;;;;0.00;0.00;;;23.50;68.50;;;;;;4190074;27;20105;-64
2022/08/01 08:38:01;;;;;;;0.00;0.00;;;23.50;68.60;;;;;;4191013;28;20590;-64
2022/08/01 08:40:30;;;;;;;0.00;0.00;;;23.50;68.60;;;;;;4190351;28;20079;-64
2022/08/01 08:42:52;;;;;;;0.05;0.05;;;23.50;69.30;;;;;;4190521;28;20056;-62
2022/08/01 08:45:14;;;;;;;3.13;2.83;;;23.50;68.70;;;;;;4190385;28;20159;-63
2022/08/01 08:47:38;;;;;;;0.00;0.00;;;23.50;67.70;;;;;;4190338;28;20541;-61
2022/08/01 08:50:03;;;;;;;0.10;0.10;;;23.50;68.40;;;;;;4189212;28;20052;-62
2022/08/01 08:52:26;;;;;;;0.15;0.15;;;23.60;67.40;;;;;;4190912;28;20040;-63
2022/08/01 08:54:50;;;;;;;0.00;0.00;;;23.60;67.80;;;;;;4172201;28;20483;-63
2022/08/01 08:57:14;;;;;;;0.00;0.00;;;23.60;68.20;;;;;;4190708;28;20053;-66
2022/08/01 08:59:37;;;;;;;0.00;0.00;;;23.60;67.80;;;;;;4190250;28;20131;-63
2022/08/01 09:02:00;;;;;;;0.00;0.00;;;23.70;67.50;;;;;;4190985;28;20448;-66
2022/08/01 09:04:24;;;;;;;0.45;0.45;;;23.70;65.90;;;;;;4189938;28;20430;-63
2022/08/01 09:06:47;;;;;;;0.00;0.00;;;23.80;65.90;;;;;;4190895;28;20557;-62
2022/08/01 09:09:10;;;;;;;1.15;1.13;;;23.80;66.40;;;;;;4189522;28;20514;-65
2022/08/01 09:11:33;;;;;;;0.00;0.00;;;23.70;66.40;;;;;;4189904;28;20514;-66
2022/08/01 09:14:06;;;;;;;0.00;0.00;;;23.80;65.80;;;;;;4189905;28;20453;-65
2022/08/01 09:16:28;;;;;;;0.00;0.00;;;23.80;66.20;;;;;;4187151;28;20053;-66
2022/08/01 09:18:50;;;;;;;1.88;0.68;;;23.80;66.40;;;;;;4189825;28;20047;-69
2022/08/01 09:21:17;;;;;;;0.00;0.00;;;23.80;65.90;;;;;;4190469;28;20048;-66
2022/08/01 09:23:42;;;;;;;0.00;0.00;;;23.80;64.40;;;;;;4188722;28;20147;-65
2022/08/01 09:26:15;;;;;;;0.00;0.00;;;23.80;64.70;;;;;;4189823;28;20060;-65
2022/08/01 09:28:38;;;;;;;0.00;0.00;;;23.80;64.90;;;;;;4173468;28;20053;-65
2022/08/01 09:31:06;;;;;;;0.55;0.55;;;23.80;65.20;;;;;;4189932;28;20059;-65
2022/08/01 09:33:51;;;;;;;0.17;0.17;;;23.80;64.60;;;;;;4189684;28;20056;-65
2022/08/01 09:36:13;;;;;;;0.00;0.00;;;23.80;64.30;;;;;;4189937;28;20054;-65
2022/08/01 09:38:36;;;;;;;3.63;0.47;;;23.90;65.00;;;;;;4189329;28;20121;-65
2022/08/01 09:41:00;;;;;;;0.28;0.28;;;23.90;64.90;;;;;;4190193;28;20102;-62
2022/08/01 09:43:24;;;;;;;0.00;0.00;;;23.90;64.90;;;;;;4188798;28;20359;-63
2022/08/01 09:45:47;;;;;;;0.00;0.00;;;23.90;64.60;;;;;;4190060;28;20060;-63
2022/08/01 09:48:11;;;;;;;0.00;0.00;;;23.90;64.30;;;;;;4187421;28;20051;-63
2022/08/01 09:50:41;;;;;;;0.00;0.00;;;23.90;64.40;;;;;;4189930;28;20048;-62
2022/08/01 09:53:03;;;;;;;0.00;0.00;;;23.80;64.40;;;;;;4189860;28;20060;-62
2022/08/01 09:55:27;;;;;;;0.00;0.00;;;23.80;65.10;;;;;;4189411;28;20135;-63
2022/08/01 09:57:57;;;;;;;0.00;0.00;;;23.80;65.20;;;;;;4190296;28;20800;-63
2022/08/01 10:00:20;;;;;;;0.00;0.00;;;23.90;65.30;;;;;;4189330;28;20131;-63
2022/08/01 10:03:20;;;;;;;0.45;0.45;;;23.90;64.60;;;;;;4188236;28;20049;-63
2022/08/01 10:05:43;;;;;;;0.00;0.00;;;23.90;64.70;;;;;;4189921;28;20101;-63
2022/08/01 10:08:07;;;;;;;0.00;0.00;;;23.90;64.40;;;;;;4189595;28;20163;-63
2022/08/01 10:10:32;;;;;;;0.63;0.63;;;23.90;63.90;;;;;;4189295;28;20133;-62
2022/08/01 10:12:57;;;;;;;0.00;0.00;;;23.90;64.20;;;;;;4187904;28;20055;-63
2022/08/01 10:15:20;;;;;;;0.20;0.20;;;24.00;64.20;;;;;;4186146;28;20534;-63
2022/08/01 10:17:47;;;;;;;0.20;0.20;;;23.90;63.70;;;;;;4187358;28;20069;-63
2022/08/01 10:20:12;;;;;;;0.10;0.10;;;23.90;64.20;;;;;;4164656;28;20473;-63
2022/08/01 10:22:44;;;;;;;1.15;0.90;;;23.90;64.30;;;;;;4188373;28;20056;-63
2022/08/01 10:25:07;;;;;;;0.00;0.00;;;24.00;64.30;;;;;;4189753;28;20056;-63
2022/08/01 10:27:33;;;;;;;0.00;0.00;;;24.00;64.00;;;;;;4189147;28;20055;-64
2022/08/01 10:30:03;;;;;;;0.05;0.05;;;24.00;63.60;;;;;;4189476;28;20048;-64
2022/08/01 10:32:30;;;;;;;0.00;0.00;;;24.00;63.70;;;;;;4189224;28;20056;-62
2022/08/01 10:34:53;;;;;;;0.00;0.00;;;24.00;63.20;;;;;;4188250;28;20052;-62
2022/08/01 10:37:16;;;;;;;0.00;0.00;;;24.00;62.50;;;;;;4189406;28;20056;-63
2022/08/01 10:39:40;;;;;;;0.00;0.00;;;24.00;62.10;;;;;;4189273;28;20052;-63
2022/08/01 10:42:03;;;;;;;0.00;0.00;;;24.00;62.40;;;;;;4189406;28;20052;-63
2022/08/01 10:44:32;;;;;;;0.20;0.20;;;24.10;60.80;;;;;;4189792;28;20411;-63
2022/08/01 10:46:59;;;;;;;0.00;0.00;;;24.10;62.10;;;;;;4187870;28;20095;-63
2022/08/01 10:49:24;;;;;;;0.00;0.00;;;24.10;62.20;;;;;;4190650;28;20063;-63
2022/08/01 10:51:47;;;;;;;0.00;0.00;;;24.10;62.40;;;;;;4191207;28;20506;-63
2022/08/01 10:54:14;;;;;;;0.05;0.05;;;24.10;62.70;;;;;;4190662;28;20059;-63
2022/08/01 10:56:41;;;;;;;0.00;0.00;;;24.10;62.60;;;;;;4191911;28;20439;-63
2022/08/01 10:59:04;;;;;;;0.20;0.20;;;24.20;62.50;;;;;;4191787;28;20055;-63
2022/08/01 11:01:32;;;;;;;0.00;0.00;;;24.20;61.70;;;;;;4192067;28;20134;-63
2022/08/01 11:04:03;;;;;;;0.10;0.10;;;24.20;61.90;;;;;;4192461;28;20048;-63
2022/08/01 11:06:34;;;;;;;0.00;0.00;;;24.20;62.20;;;;;;4191624;28;20056;-62
2022/08/01 11:08:58;;;;;;;0.10;0.10;;;24.20;61.90;;;;;;4191338;28;20079;-62
2022/08/01 11:11:21;;;;;;;0.00;0.00;;;24.30;61.90;;;;;;4190951;28;20185;-62
2022/08/01 11:14:06;;;;;;;0.00;0.00;;;24.30;62.10;;;;;;4190806;28;20472;-63
2022/08/01 11:16:31;;;;;;;0.00;0.00;;;24.30;61.50;;;;;;4191069;28;20048;-63
2022/08/01 11:18:53;;;;;;;0.00;0.00;;;24.30;61.60;;;;;;4173750;28;20095;-64
2022/08/01 11:21:15;;;;;;;0.00;0.00;;;24.30;60.60;;;;;;4176044;28;20492;-63
2022/08/01 11:23:58;;;;;;;0.00;0.00;;;24.30;61.00;;;;;;4174348;28;20128;-63
2022/08/01 11:26:20;;;;;;;0.00;0.00;;;24.40;59.80;;;;;;4175452;28;20060;-62
2022/08/01 11:29:14;;;;;;;0.00;0.00;;;24.40;60.70;;;;;;4175324;28;20503;-63
2022/08/01 11:31:43;;;;;;;0.00;0.00;;;24.40;60.60;;;;;;4190548;28;20074;-63
2022/08/01 11:34:06;;;;;;;1.58;1.17;;;24.40;60.00;;;;;;4191918;28;20052;-63
2022/08/01 11:36:29;;;;;;;0.00;0.00;;;24.40;59.70;;;;;;4191917;28;20076;-63
2022/08/01 11:39:16;;;;;;;0.00;0.00;;;24.40;60.00;;;;;;4191989;28;20139;-64
2022/08/01 11:41:38;;;;;;;0.00;0.00;;;24.40;59.80;;;;;;4191147;28;20068;-64
2022/08/01 11:44:02;;;;;;;0.00;0.00;;;24.40;59.30;;;;;;4190361;28;20637;-62
2022/08/01 11:46:56;;;;;;;0.00;0.00;;;24.40;59.50;;;;;;4191453;28;20135;-64
2022/08/01 11:49:34;;;;;;;0.00;0.00;;;24.40;59.90;;;;;;4175366;28;20057;-63
2022/08/01 11:52:03;;;;;;;1.60;0.80;;;24.40;59.50;;;;;;4177791;28;20065;-64
2022/08/01 11:54:28;;;;;;;7.13;1.60;;;24.40;59.50;;;;;;4191134;28;20139;-63
2022/08/01 11:56:57;;;;;;;0.05;0.05;;;24.40;59.40;;;;;;4191305;28;20472;-64
2022/08/01 11:59:20;;;;;;;0.00;0.00;;;24.40;59.90;;;;;;4191637;28;20056;-64
2022/08/01 12:01:42;;;;;;;0.00;0.00;;;24.40;58.90;;;;;;4191065;28;20056;-63
2022/08/01 12:04:06;;;;;;;0.00;0.00;;;24.40;59.20;;;;;;4190346;28;20472;-63
2022/08/01 12:06:28;;;;;;;0.00;0.00;;;24.40;59.50;;;;;;4189562;28;20059;-63
2022/08/01 12:08:50;;;;;;;0.00;0.00;;;24.40;59.20;;;;;;4190892;28;20102;-63
2022/08/01 12:11:12;;;;;;;0.03;0.03;;;24.40;58.90;;;;;;4190998;28;20127;-63
2022/08/01 12:13:42;;;;;;;0.32;0.32;;;24.40;58.80;;;;;;4190709;28;20105;-63
2022/08/01 12:16:08;;;;;;;0.00;0.00;;;24.50;58.60;;;;;;4190913;28;20506;-64
2022/08/01 12:18:39;;;;;;;0.00;0.00;;;24.50;58.60;;;;;;4189912;28;21808;-62
2022/08/01 12:21:05;;;;;;;0.10;0.10;;;24.50;58.80;;;;;;4190950;28;20159;-63
2022/08/01 12:23:27;;;;;;;0.10;0.10;;;24.50;58.50;;;;;;4191750;28;20063;-64
2022/08/01 12:25:52;;;;;;;0.00;0.00;;;24.50;58.20;;;;;;4191087;28;20057;-64
2022/08/01 12:28:15;;;;;;;0.00;0.00;;;24.50;58.40;;;;;;4189196;28;20048;-64
2022/08/01 12:30:38;;;;;;;0.00;0.00;;;24.50;57.90;;;;;;4190793;28;20427;-64
2022/08/01 12:33:00;;;;;;;0.00;0.00;;;24.50;57.80;;;;;;4190182;28;20056;-64
2022/08/01 12:35:25;;;;;;;0.10;0.10;;;24.50;58.70;;;;;;4188657;28;20081;-64
2022/08/01 12:37:50;;;;;;;0.00;0.00;;;24.50;59.20;;;;;;4190706;28;20067;-64